sensor_id;sensor_type;location;lat;lon;timestamp;pressure;altitude;pressure_sealevel;temperature;humidity
34065;BME280;20339;49.754;20.158;2023-02-19T00:02:13;96314.96;;;5.78;99.01
34065;BME280;20339;49.754;20.158;2023-02-19T00:04:44;96316.30;;;5.77;98.59
34065;BME280;20339;49.754;20.158;2023-02-19T00:07:15;96319.98;;;5.77;98.47
34065;BME280;20339;49.754;20.158;2023-02-19T00:09:46;96318.80;;;5.75;98.15
34065;BME280;20339;49.754;20.158;2023-02-19T00:12:19;96319.02;;;5.75;98.03
34065;BME280;20339;49.754;20.158;2023-02-19T00:14:51;96321.43;;;5.73;98.08
34065;BME280;20339;49.754;20.158;2023-02-19T00:17:23;96322.58;;;5.72;98.14
34065;BME280;20339;49.754;20.158;2023-02-19T00:19:55;96313.00;;;5.70;98.15
34065;BME280;20339;49.754;20.158;2023-02-19T00:22:27;96333.83;;;5.70;97.91
34065;BME280;20339;49.754;20.158;2023-02-19T00:24:58;96332.94;;;5.70;98.05
34065;BME280;20339;49.754;20.158;2023-02-19T00:27:29;96326.05;;;5.70;98.06
34065;BME280;20339;49.754;20.158;2023-02-19T00:30:00;96324.78;;;5.69;98.51
34065;BME280;20339;49.754;20.158;2023-02-19T00:32:31;96320.67;;;5.67;98.31
34065;BME280;20339;49.754;20.158;2023-02-19T00:35:02;96334.71;;;5.66;98.47
34065;BME280;20339;49.754;20.158;2023-02-19T00:37:34;96319.82;;;5.65;98.57
34065;BME280;20339;49.754;20.158;2023-02-19T00:40:05;96342.29;;;5.65;98.59
34065;BME280;20339;49.754;20.158;2023-02-19T00:42:37;96345.12;;;5.60;98.84
34065;BME280;20339;49.754;20.158;2023-02-19T00:45:08;96348.05;;;5.59;98.67
34065;BME280;20339;49.754;20.158;2023-02-19T00:47:42;96367.31;;;5.60;98.69
34065;BME280;20339;49.754;20.158;2023-02-19T00:50:13;96367.71;;;5.56;98.79
34065;BME280;20339;49.754;20.158;2023-02-19T00:52:44;96349.08;;;5.53;98.92
34065;BME280;20339;49.754;20.158;2023-02-19T00:55:20;96351.12;;;5.51;98.67
34065;BME280;20339;49.754;20.158;2023-02-19T00:57:51;96366.38;;;5.47;99.05
34065;BME280;20339;49.754;20.158;2023-02-19T01:00:22;96348.70;;;5.47;98.96
34065;BME280;20339;49.754;20.158;2023-02-19T01:02:53;96358.20;;;5.45;99.21
34065;BME280;20339;49.754;20.158;2023-02-19T01:05:25;96361.91;;;5.41;99.18
34065;BME280;20339;49.754;20.158;2023-02-19T01:07:56;96362.00;;;5.37;99.29
34065;BME280;20339;49.754;20.158;2023-02-19T01:10:27;96355.98;;;5.39;99.22
34065;BME280;20339;49.754;20.158;2023-02-19T01:12:57;96363.46;;;5.45;98.96
34065;BME280;20339;49.754;20.158;2023-02-19T01:15:32;96363.00;;;5.46;98.96
34065;BME280;20339;49.754;20.158;2023-02-19T01:18:04;96360.73;;;5.46;99.00
34065;BME280;20339;49.754;20.158;2023-02-19T01:20:39;96361.41;;;5.45;99.02
34065;BME280;20339;49.754;20.158;2023-02-19T01:23:11;96362.93;;;5.44;99.07
34065;BME280;20339;49.754;20.158;2023-02-19T01:25:43;96366.13;;;5.42;99.00
34065;BME280;20339;49.754;20.158;2023-02-19T01:28:14;96361.21;;;5.37;99.04
34065;BME280;20339;49.754;20.158;2023-02-19T01:30:45;96359.85;;;5.32;99.22
34065;BME280;20339;49.754;20.158;2023-02-19T01:33:17;96356.77;;;5.29;99.40
34065;BME280;20339;49.754;20.158;2023-02-19T01:35:48;96353.98;;;5.28;99.35
34065;BME280;20339;49.754;20.158;2023-02-19T01:38:19;96351.76;;;5.25;99.20
34065;BME280;20339;49.754;20.158;2023-02-19T01:40:57;96343.92;;;5.27;99.57
34065;BME280;20339;49.754;20.158;2023-02-19T01:43:28;96338.84;;;5.27;99.38
34065;BME280;20339;49.754;20.158;2023-02-19T01:46:04;96336.21;;;5.27;99.59
34065;BME280;20339;49.754;20.158;2023-02-19T01:48:37;96337.05;;;5.27;99.37
34065;BME280;20339;49.754;20.158;2023-02-19T01:51:14;96328.06;;;5.27;99.72
34065;BME280;20339;49.754;20.158;2023-02-19T01:53:52;96325.52;;;5.25;99.89
34065;BME280;20339;49.754;20.158;2023-02-19T01:56:26;96325.36;;;5.24;100.00
34065;BME280;20339;49.754;20.158;2023-02-19T01:58:59;96321.45;;;5.22;100.00
34065;BME280;20339;49.754;20.158;2023-02-19T02:01:30;96321.21;;;5.20;100.00
34065;BME280;20339;49.754;20.158;2023-02-19T02:04:01;96317.41;;;5.18;100.00
34065;BME280;20339;49.754;20.158;2023-02-19T02:06:38;96310.41;;;5.16;100.00
34065;BME280;20339;49.754;20.158;2023-02-19T02:09:12;96317.70;;;5.14;100.00
34065;BME280;20339;49.754;20.158;2023-02-19T02:12:03;96312.16;;;5.11;100.00
34065;BME280;20339;49.754;20.158;2023-02-19T02:14:36;96310.52;;;5.08;100.00
34065;BME280;20339;49.754;20.158;2023-02-19T02:17:14;96315.67;;;5.04;100.00
34065;BME280;20339;49.754;20.158;2023-02-19T02:20:06;96308.56;;;5.01;100.00
34065;BME280;20339;49.754;20.158;2023-02-19T02:22:50;96302.35;;;5.01;100.00
34065;BME280;20339;49.754;20.158;2023-02-19T02:25:56;96299.02;;;4.99;100.00
34065;BME280;20339;49.754;20.158;2023-02-19T02:28:45;96302.27;;;4.97;100.00
34065;BME280;20339;49.754;20.158;2023-02-19T02:31:21;96300.54;;;4.96;100.00
34065;BME280;20339;49.754;20.158;2023-02-19T02:34:00;96304.27;;;4.96;100.00
34065;BME280;20339;49.754;20.158;2023-02-19T02:36:38;96291.81;;;4.96;100.00
34065;BME280;20339;49.754;20.158;2023-02-19T02:39:13;96287.83;;;4.97;100.00
34065;BME280;20339;49.754;20.158;2023-02-19T02:41:48;96288.95;;;4.99;100.00
34065;BME280;20339;49.754;20.158;2023-02-19T02:44:41;96288.22;;;5.00;100.00
34065;BME280;20339;49.754;20.158;2023-02-19T02:47:38;96283.86;;;5.02;100.00
34065;BME280;20339;49.754;20.158;2023-02-19T02:50:13;96283.29;;;5.03;100.00
34065;BME280;20339;49.754;20.158;2023-02-19T02:52:46;96280.65;;;4.99;100.00
34065;BME280;20339;49.754;20.158;2023-02-19T02:55:40;96279.31;;;4.96;100.00
34065;BME280;20339;49.754;20.158;2023-02-19T02:58:13;96267.64;;;4.95;100.00
34065;BME280;20339;49.754;20.158;2023-02-19T03:00:50;96262.39;;;4.95;100.00
34065;BME280;20339;49.754;20.158;2023-02-19T03:03:44;96260.77;;;4.95;100.00
34065;BME280;20339;49.754;20.158;2023-02-19T03:06:19;96263.60;;;4.96;100.00
34065;BME280;20339;49.754;20.158;2023-02-19T03:08:54;96259.61;;;4.98;100.00
34065;BME280;20339;49.754;20.158;2023-02-19T03:11:26;96257.69;;;5.00;100.00
34065;BME280;20339;49.754;20.158;2023-02-19T03:14:19;96257.42;;;5.00;100.00
34065;BME280;20339;49.754;20.158;2023-02-19T03:17:14;96257.27;;;4.99;100.00
34065;BME280;20339;49.754;20.158;2023-02-19T03:20:06;96258.99;;;4.99;100.00
34065;BME280;20339;49.754;20.158;2023-02-19T03:22:41;96245.13;;;4.98;100.00
34065;BME280;20339;49.754;20.158;2023-02-19T03:25:15;96243.19;;;4.99;100.00
34065;BME280;20339;49.754;20.158;2023-02-19T03:28:08;96241.92;;;4.99;100.00
34065;BME280;20339;49.754;20.158;2023-02-19T03:30:45;96227.79;;;4.98;100.00
34065;BME280;20339;49.754;20.158;2023-02-19T03:33:18;96232.73;;;4.98;100.00
34065;BME280;20339;49.754;20.158;2023-02-19T03:35:55;96227.16;;;4.98;100.00
34065;BME280;20339;49.754;20.158;2023-02-19T03:38:30;96223.63;;;4.98;100.00
34065;BME280;20339;49.754;20.158;2023-02-19T03:41:14;96220.95;;;4.98;100.00
34065;BME280;20339;49.754;20.158;2023-02-19T03:43:53;96224.75;;;5.01;100.00
34065;BME280;20339;49.754;20.158;2023-02-19T03:46:31;96220.65;;;5.02;100.00
34065;BME280;20339;49.754;20.158;2023-02-19T03:49:11;96222.50;;;5.02;100.00
34065;BME280;20339;49.754;20.158;2023-02-19T03:51:43;96216.23;;;5.01;100.00
34065;BME280;20339;49.754;20.158;2023-02-19T03:54:18;96207.69;;;5.03;100.00
34065;BME280;20339;49.754;20.158;2023-02-19T03:56:53;96206.90;;;5.04;100.00
34065;BME280;20339;49.754;20.158;2023-02-19T03:59:33;96205.22;;;5.04;100.00
34065;BME280;20339;49.754;20.158;2023-02-19T04:02:11;96201.21;;;5.07;100.00
34065;BME280;20339;49.754;20.158;2023-02-19T04:04:50;96199.29;;;5.10;100.00
34065;BME280;20339;49.754;20.158;2023-02-19T04:07:23;96200.60;;;5.10;100.00
34065;BME280;20339;49.754;20.158;2023-02-19T04:09:59;96194.15;;;5.12;100.00
34065;BME280;20339;49.754;20.158;2023-02-19T04:12:30;96196.63;;;5.14;100.00
34065;BME280;20339;49.754;20.158;2023-02-19T04:15:05;96201.73;;;5.15;100.00
34065;BME280;20339;49.754;20.158;2023-02-19T04:17:42;96198.98;;;5.13;100.00
34065;BME280;20339;49.754;20.158;2023-02-19T04:22:47;96194.42;;;5.14;100.00
34065;BME280;20339;49.754;20.158;2023-02-19T04:25:19;96195.94;;;5.13;100.00
34065;BME280;20339;49.754;20.158;2023-02-19T04:27:52;96198.30;;;5.11;100.00
34065;BME280;20339;49.754;20.158;2023-02-19T04:30:24;96191.49;;;5.07;100.00
34065;BME280;20339;49.754;20.158;2023-02-19T04:32:55;96186.58;;;5.06;100.00
34065;BME280;20339;49.754;20.158;2023-02-19T04:35:26;96178.25;;;5.07;100.00
34065;BME280;20339;49.754;20.158;2023-02-19T04:37:57;96169.29;;;5.05;100.00
34065;BME280;20339;49.754;20.158;2023-02-19T04:40:28;96168.48;;;5.02;100.00
34065;BME280;20339;49.754;20.158;2023-02-19T04:43:02;96163.50;;;5.02;100.00
34065;BME280;20339;49.754;20.158;2023-02-19T04:45:37;96159.14;;;5.01;100.00
34065;BME280;20339;49.754;20.158;2023-02-19T04:48:09;96157.24;;;5.01;100.00
34065;BME280;20339;49.754;20.158;2023-02-19T04:50:41;96155.30;;;5.00;100.00
34065;BME280;20339;49.754;20.158;2023-02-19T04:53:12;96157.71;;;5.02;100.00
34065;BME280;20339;49.754;20.158;2023-02-19T04:55:43;96148.15;;;5.02;100.00
34065;BME280;20339;49.754;20.158;2023-02-19T04:58:15;96144.27;;;5.02;100.00
34065;BME280;20339;49.754;20.158;2023-02-19T05:00:51;96149.38;;;5.04;100.00
34065;BME280;20339;49.754;20.158;2023-02-19T05:03:22;96150.64;;;5.12;100.00
34065;BME280;20339;49.754;20.158;2023-02-19T05:05:54;96150.99;;;5.20;100.00
34065;BME280;20339;49.754;20.158;2023-02-19T05:08:28;96149.10;;;5.30;100.00
34065;BME280;20339;49.754;20.158;2023-02-19T05:11:00;96148.02;;;5.35;100.00
34065;BME280;20339;49.754;20.158;2023-02-19T05:13:32;96151.92;;;5.35;100.00
34065;BME280;20339;49.754;20.158;2023-02-19T05:16:05;96154.42;;;5.33;100.00
34065;BME280;20339;49.754;20.158;2023-02-19T05:18:36;96152.62;;;5.30;100.00
34065;BME280;20339;49.754;20.158;2023-02-19T05:21:11;96152.83;;;5.28;100.00
34065;BME280;20339;49.754;20.158;2023-02-19T05:23:42;96148.08;;;5.24;100.00
34065;BME280;20339;49.754;20.158;2023-02-19T05:26:15;96146.23;;;5.22;100.00
34065;BME280;20339;49.754;20.158;2023-02-19T05:28:49;96140.94;;;5.18;100.00
34065;BME280;20339;49.754;20.158;2023-02-19T05:31:21;96140.77;;;5.14;100.00
34065;BME280;20339;49.754;20.158;2023-02-19T05:33:55;96139.65;;;5.10;100.00
34065;BME280;20339;49.754;20.158;2023-02-19T05:36:26;96137.88;;;5.05;100.00
34065;BME280;20339;49.754;20.158;2023-02-19T05:38:58;96130.86;;;5.02;100.00
34065;BME280;20339;49.754;20.158;2023-02-19T05:41:29;96137.91;;;5.01;100.00
34065;BME280;20339;49.754;20.158;2023-02-19T05:44:00;96134.70;;;5.00;100.00
34065;BME280;20339;49.754;20.158;2023-02-19T05:46:32;96137.75;;;5.01;100.00
34065;BME280;20339;49.754;20.158;2023-02-19T05:49:04;96131.97;;;5.02;100.00
34065;BME280;20339;49.754;20.158;2023-02-19T05:51:35;96126.62;;;5.04;100.00
34065;BME280;20339;49.754;20.158;2023-02-19T05:54:06;96129.29;;;5.09;100.00
34065;BME280;20339;49.754;20.158;2023-02-19T05:56:39;96125.26;;;5.12;100.00
34065;BME280;20339;49.754;20.158;2023-02-19T05:59:15;96127.04;;;5.13;100.00
34065;BME280;20339;49.754;20.158;2023-02-19T06:01:48;96122.46;;;5.12;100.00
34065;BME280;20339;49.754;20.158;2023-02-19T06:04:22;96125.30;;;5.09;100.00
34065;BME280;20339;49.754;20.158;2023-02-19T06:07:01;96125.04;;;5.08;100.00
34065;BME280;20339;49.754;20.158;2023-02-19T06:09:32;96120.65;;;5.06;100.00
34065;BME280;20339;49.754;20.158;2023-02-19T06:12:08;96116.12;;;5.04;100.00
34065;BME280;20339;49.754;20.158;2023-02-19T06:14:39;96125.15;;;5.03;100.00
34065;BME280;20339;49.754;20.158;2023-02-19T06:17:10;96125.14;;;5.02;100.00
34065;BME280;20339;49.754;20.158;2023-02-19T06:19:45;96128.14;;;5.03;100.00
34065;BME280;20339;49.754;20.158;2023-02-19T06:22:16;96130.30;;;5.05;100.00
34065;BME280;20339;49.754;20.158;2023-02-19T06:24:47;96126.05;;;5.06;100.00
34065;BME280;20339;49.754;20.158;2023-02-19T06:27:19;96126.05;;;5.06;100.00
34065;BME280;20339;49.754;20.158;2023-02-19T06:29:50;96127.35;;;5.04;100.00
34065;BME280;20339;49.754;20.158;2023-02-19T06:32:21;96119.63;;;5.03;100.00
34065;BME280;20339;49.754;20.158;2023-02-19T06:35:02;96117.73;;;5.03;100.00
34065;BME280;20339;49.754;20.158;2023-02-19T06:37:36;96102.50;;;5.03;100.00
34065;BME280;20339;49.754;20.158;2023-02-19T06:40:09;96106.23;;;5.06;100.00
34065;BME280;20339;49.754;20.158;2023-02-19T06:42:40;96094.56;;;5.09;100.00
34065;BME280;20339;49.754;20.158;2023-02-19T06:45:11;96098.46;;;5.15;100.00
34065;BME280;20339;49.754;20.158;2023-02-19T06:47:46;96096.50;;;5.22;100.00
34065;BME280;20339;49.754;20.158;2023-02-19T06:50:17;96091.80;;;5.29;100.00
34065;BME280;20339;49.754;20.158;2023-02-19T06:52:48;96089.64;;;5.39;100.00
34065;BME280;20339;49.754;20.158;2023-02-19T06:55:20;96092.23;;;5.47;100.00
34065;BME280;20339;49.754;20.158;2023-02-19T06:57:52;96093.83;;;5.51;100.00
34065;BME280;20339;49.754;20.158;2023-02-19T07:00:24;96092.69;;;5.57;100.00
34065;BME280;20339;49.754;20.158;2023-02-19T07:03:08;96091.60;;;5.64;100.00
34065;BME280;20339;49.754;20.158;2023-02-19T07:05:40;96090.78;;;5.70;100.00
34065;BME280;20339;49.754;20.158;2023-02-19T07:08:12;96088.27;;;5.76;100.00
34065;BME280;20339;49.754;20.158;2023-02-19T07:10:54;96089.23;;;5.82;100.00
34065;BME280;20339;49.754;20.158;2023-02-19T07:13:27;96093.92;;;5.85;100.00
34065;BME280;20339;49.754;20.158;2023-02-19T07:16:01;96093.48;;;5.85;100.00
34065;BME280;20339;49.754;20.158;2023-02-19T07:18:32;96088.80;;;5.86;100.00
34065;BME280;20339;49.754;20.158;2023-02-19T07:21:06;96084.25;;;5.89;100.00
34065;BME280;20339;49.754;20.158;2023-02-19T07:23:39;96082.44;;;5.92;100.00
34065;BME280;20339;49.754;20.158;2023-02-19T07:26:12;96082.29;;;5.94;100.00
34065;BME280;20339;49.754;20.158;2023-02-19T07:28:45;96076.08;;;5.95;100.00
34065;BME280;20339;49.754;20.158;2023-02-19T07:31:20;96077.23;;;5.96;100.00
34065;BME280;20339;49.754;20.158;2023-02-19T07:33:52;96073.66;;;5.95;100.00
34065;BME280;20339;49.754;20.158;2023-02-19T07:36:24;96070.45;;;5.98;100.00
34065;BME280;20339;49.754;20.158;2023-02-19T07:38:57;96065.51;;;6.07;100.00
34065;BME280;20339;49.754;20.158;2023-02-19T07:41:29;96070.94;;;6.19;100.00
34065;BME280;20339;49.754;20.158;2023-02-19T07:44:05;96073.41;;;6.32;100.00
34065;BME280;20339;49.754;20.158;2023-02-19T07:46:37;96070.82;;;6.42;100.00
34065;BME280;20339;49.754;20.158;2023-02-19T07:49:10;96067.65;;;6.44;100.00
34065;BME280;20339;49.754;20.158;2023-02-19T07:51:41;96064.45;;;6.40;100.00
34065;BME280;20339;49.754;20.158;2023-02-19T07:54:13;96070.09;;;6.34;100.00
34065;BME280;20339;49.754;20.158;2023-02-19T07:56:47;96079.98;;;6.29;100.00
34065;BME280;20339;49.754;20.158;2023-02-19T07:59:18;96079.98;;;6.24;100.00
34065;BME280;20339;49.754;20.158;2023-02-19T08:01:51;96082.36;;;6.24;100.00
34065;BME280;20339;49.754;20.158;2023-02-19T08:04:40;96088.25;;;6.23;100.00
34065;BME280;20339;49.754;20.158;2023-02-19T08:07:13;96088.94;;;6.25;100.00
34065;BME280;20339;49.754;20.158;2023-02-19T08:09:44;96086.77;;;6.26;99.85
34065;BME280;20339;49.754;20.158;2023-02-19T08:12:35;96095.84;;;6.26;99.85
34065;BME280;20339;49.754;20.158;2023-02-19T08:15:26;96086.09;;;6.24;99.97
34065;BME280;20339;49.754;20.158;2023-02-19T08:17:57;96088.78;;;6.24;100.00
34065;BME280;20339;49.754;20.158;2023-02-19T08:20:29;96085.94;;;6.23;99.96
34065;BME280;20339;49.754;20.158;2023-02-19T08:23:00;96088.94;;;6.21;99.89
34065;BME280;20339;49.754;20.158;2023-02-19T08:25:34;96089.88;;;6.18;99.94
34065;BME280;20339;49.754;20.158;2023-02-19T08:28:06;96082.98;;;6.16;100.00
34065;BME280;20339;49.754;20.158;2023-02-19T08:30:39;96088.77;;;6.15;100.00
34065;BME280;20339;49.754;20.158;2023-02-19T08:33:13;96081.24;;;6.13;100.00
34065;BME280;20339;49.754;20.158;2023-02-19T08:35:46;96088.77;;;6.12;100.00
34065;BME280;20339;49.754;20.158;2023-02-19T08:38:17;96094.09;;;6.11;100.00
34065;BME280;20339;49.754;20.158;2023-02-19T08:40:48;96093.52;;;6.09;100.00
34065;BME280;20339;49.754;20.158;2023-02-19T08:43:19;96094.08;;;6.06;100.00
34065;BME280;20339;49.754;20.158;2023-02-19T08:45:53;96084.77;;;6.01;100.00
34065;BME280;20339;49.754;20.158;2023-02-19T08:48:25;96084.87;;;5.96;100.00
34065;BME280;20339;49.754;20.158;2023-02-19T08:50:59;96079.97;;;5.94;100.00
34065;BME280;20339;49.754;20.158;2023-02-19T08:53:33;96071.60;;;5.93;100.00
34065;BME280;20339;49.754;20.158;2023-02-19T08:56:08;96084.54;;;5.91;100.00
34065;BME280;20339;49.754;20.158;2023-02-19T08:58:42;96086.23;;;5.89;100.00
34065;BME280;20339;49.754;20.158;2023-02-19T09:01:16;96081.28;;;5.91;100.00
34065;BME280;20339;49.754;20.158;2023-02-19T09:03:53;96086.08;;;5.93;100.00
34065;BME280;20339;49.754;20.158;2023-02-19T09:06:24;96080.19;;;5.95;100.00
34065;BME280;20339;49.754;20.158;2023-02-19T09:08:56;96087.44;;;5.99;100.00
34065;BME280;20339;49.754;20.158;2023-02-19T09:11:27;96074.65;;;6.03;100.00
34065;BME280;20339;49.754;20.158;2023-02-19T09:14:00;96076.28;;;6.05;100.00
34065;BME280;20339;49.754;20.158;2023-02-19T09:16:35;96078.44;;;6.01;100.00
34065;BME280;20339;49.754;20.158;2023-02-19T09:19:06;96078.77;;;5.97;99.98
34065;BME280;20339;49.754;20.158;2023-02-19T09:21:38;96070.88;;;5.94;100.00
34065;BME280;20339;49.754;20.158;2023-02-19T09:24:10;96072.65;;;5.95;100.00
34065;BME280;20339;49.754;20.158;2023-02-19T09:26:43;96061.61;;;5.96;100.00
34065;BME280;20339;49.754;20.158;2023-02-19T09:29:14;96067.61;;;5.96;100.00
34065;BME280;20339;49.754;20.158;2023-02-19T09:31:46;96068.61;;;5.94;100.00
34065;BME280;20339;49.754;20.158;2023-02-19T09:34:18;96064.66;;;5.98;100.00
34065;BME280;20339;49.754;20.158;2023-02-19T09:36:51;96070.29;;;6.00;100.00
34065;BME280;20339;49.754;20.158;2023-02-19T09:39:23;96068.13;;;6.00;100.00
34065;BME280;20339;49.754;20.158;2023-02-19T09:41:56;96071.55;;;6.03;100.00
34065;BME280;20339;49.754;20.158;2023-02-19T09:44:31;96068.63;;;6.08;100.00
34065;BME280;20339;49.754;20.158;2023-02-19T09:47:07;96073.70;;;6.05;100.00
34065;BME280;20339;49.754;20.158;2023-02-19T09:49:42;96068.98;;;6.00;100.00
34065;BME280;20339;49.754;20.158;2023-02-19T09:52:23;96068.61;;;5.94;99.92
34065;BME280;20339;49.754;20.158;2023-02-19T09:55:00;96075.77;;;5.89;100.00
34065;BME280;20339;49.754;20.158;2023-02-19T09:57:35;96080.49;;;5.86;100.00
34065;BME280;20339;49.754;20.158;2023-02-19T10:00:20;96081.23;;;5.80;99.97
34065;BME280;20339;49.754;20.158;2023-02-19T10:02:56;96086.41;;;5.72;100.00
34065;BME280;20339;49.754;20.158;2023-02-19T10:05:33;96086.39;;;5.62;99.88
34065;BME280;20339;49.754;20.158;2023-02-19T10:08:08;96092.36;;;5.53;99.78
34065;BME280;20339;49.754;20.158;2023-02-19T10:10:44;96091.02;;;5.46;99.97
34065;BME280;20339;49.754;20.158;2023-02-19T10:13:20;96096.52;;;5.40;100.00
34065;BME280;20339;49.754;20.158;2023-02-19T10:15:53;96095.92;;;5.34;100.00
34065;BME280;20339;49.754;20.158;2023-02-19T10:18:28;96094.53;;;5.29;100.00
34065;BME280;20339;49.754;20.158;2023-02-19T10:21:02;96103.26;;;5.27;100.00
34065;BME280;20339;49.754;20.158;2023-02-19T10:23:36;96110.92;;;5.25;100.00
34065;BME280;20339;49.754;20.158;2023-02-19T10:26:10;96112.23;;;5.21;100.00
34065;BME280;20339;49.754;20.158;2023-02-19T10:28:42;96110.87;;;5.16;100.00
34065;BME280;20339;49.754;20.158;2023-02-19T10:31:21;96104.13;;;5.10;100.00
34065;BME280;20339;49.754;20.158;2023-02-19T10:33:56;96110.23;;;5.04;100.00
34065;BME280;20339;49.754;20.158;2023-02-19T10:36:32;96110.85;;;5.00;100.00
34065;BME280;20339;49.754;20.158;2023-02-19T10:39:27;96108.33;;;5.02;100.00
34065;BME280;20339;49.754;20.158;2023-02-19T10:42:04;96107.53;;;4.99;100.00
34065;BME280;20339;49.754;20.158;2023-02-19T10:44:42;96101.17;;;4.98;100.00
34065;BME280;20339;49.754;20.158;2023-02-19T10:47:22;96109.67;;;4.95;100.00
34065;BME280;20339;49.754;20.158;2023-02-19T10:49:56;96116.60;;;4.94;100.00
34065;BME280;20339;49.754;20.158;2023-02-19T10:52:32;96116.48;;;4.93;100.00
34065;BME280;20339;49.754;20.158;2023-02-19T10:55:27;96114.38;;;4.92;100.00
34065;BME280;20339;49.754;20.158;2023-02-19T10:58:21;96114.59;;;4.93;100.00
34065;BME280;20339;49.754;20.158;2023-02-19T11:01:12;96119.54;;;4.94;100.00
34065;BME280;20339;49.754;20.158;2023-02-19T11:03:49;96122.02;;;4.94;100.00
34065;BME280;20339;49.754;20.158;2023-02-19T11:06:26;96121.80;;;4.94;100.00
34065;BME280;20339;49.754;20.158;2023-02-19T11:09:01;96123.81;;;4.95;100.00
34065;BME280;20339;49.754;20.158;2023-02-19T11:11:35;96125.45;;;4.97;100.00
34065;BME280;20339;49.754;20.158;2023-02-19T11:14:15;96125.92;;;4.99;100.00
34065;BME280;20339;49.754;20.158;2023-02-19T11:16:51;96129.13;;;4.99;100.00
34065;BME280;20339;49.754;20.158;2023-02-19T11:19:28;96130.17;;;5.00;100.00
34065;BME280;20339;49.754;20.158;2023-02-19T11:22:02;96141.05;;;5.01;100.00
34065;BME280;20339;49.754;20.158;2023-02-19T11:24:52;96145.98;;;4.99;100.00
34065;BME280;20339;49.754;20.158;2023-02-19T11:27:26;96139.01;;;5.00;100.00
34065;BME280;20339;49.754;20.158;2023-02-19T11:30:29;96148.68;;;5.01;100.00
34065;BME280;20339;49.754;20.158;2023-02-19T11:33:19;96154.83;;;5.03;100.00
34065;BME280;20339;49.754;20.158;2023-02-19T11:35:57;96142.34;;;5.05;100.00
34065;BME280;20339;49.754;20.158;2023-02-19T11:38:31;96141.73;;;5.07;100.00
34065;BME280;20339;49.754;20.158;2023-02-19T11:41:09;96135.96;;;5.09;100.00
34065;BME280;20339;49.754;20.158;2023-02-19T11:44:02;96144.10;;;5.08;100.00
34065;BME280;20339;49.754;20.158;2023-02-19T11:46:44;96145.17;;;5.04;100.00
34065;BME280;20339;49.754;20.158;2023-02-19T11:49:32;96154.83;;;5.02;100.00
34065;BME280;20339;49.754;20.158;2023-02-19T11:52:24;96160.91;;;5.00;100.00
34065;BME280;20339;49.754;20.158;2023-02-19T11:55:09;96163.23;;;5.00;100.00
34065;BME280;20339;49.754;20.158;2023-02-19T11:57:50;96167.52;;;5.00;100.00
34065;BME280;20339;49.754;20.158;2023-02-19T12:00:29;96173.09;;;4.98;100.00
34065;BME280;20339;49.754;20.158;2023-02-19T12:03:24;96180.14;;;4.92;100.00
34065;BME280;20339;49.754;20.158;2023-02-19T12:06:17;96191.14;;;4.90;100.00
34065;BME280;20339;49.754;20.158;2023-02-19T12:11:53;96210.92;;;4.85;100.00
34065;BME280;20339;49.754;20.158;2023-02-19T12:14:54;96223.18;;;4.68;100.00
34065;BME280;20339;49.754;20.158;2023-02-19T12:20:32;96216.11;;;4.40;100.00
34065;BME280;20339;49.754;20.158;2023-02-19T12:26:29;96230.77;;;4.17;100.00
34065;BME280;20339;49.754;20.158;2023-02-19T12:29:18;96235.05;;;4.14;100.00
34065;BME280;20339;49.754;20.158;2023-02-19T12:32:26;96239.44;;;4.11;100.00
34065;BME280;20339;49.754;20.158;2023-02-19T12:35:28;96245.23;;;4.08;100.00
34065;BME280;20339;49.754;20.158;2023-02-19T12:38:13;96241.88;;;4.05;100.00
34065;BME280;20339;49.754;20.158;2023-02-19T12:41:05;96242.60;;;4.05;100.00
34065;BME280;20339;49.754;20.158;2023-02-19T12:43:50;96254.54;;;4.02;100.00
34065;BME280;20339;49.754;20.158;2023-02-19T12:46:30;96257.79;;;4.02;100.00
34065;BME280;20339;49.754;20.158;2023-02-19T12:49:09;96266.20;;;3.99;100.00
34065;BME280;20339;49.754;20.158;2023-02-19T12:51:46;96276.98;;;3.97;100.00
34065;BME280;20339;49.754;20.158;2023-02-19T12:54:24;96270.90;;;3.96;100.00
34065;BME280;20339;49.754;20.158;2023-02-19T12:57:03;96276.48;;;3.92;100.00
34065;BME280;20339;49.754;20.158;2023-02-19T12:59:40;96275.89;;;3.90;100.00
34065;BME280;20339;49.754;20.158;2023-02-19T13:02:20;96280.09;;;3.85;100.00
34065;BME280;20339;49.754;20.158;2023-02-19T13:04:57;96285.00;;;3.81;100.00
34065;BME280;20339;49.754;20.158;2023-02-19T13:07:37;96280.98;;;3.82;100.00
34065;BME280;20339;49.754;20.158;2023-02-19T13:10:14;96277.23;;;3.71;100.00
34065;BME280;20339;49.754;20.158;2023-02-19T13:12:51;96284.11;;;3.65;100.00
34065;BME280;20339;49.754;20.158;2023-02-19T13:15:30;96285.99;;;3.60;100.00
34065;BME280;20339;49.754;20.158;2023-02-19T13:18:06;96285.83;;;3.59;100.00
34065;BME280;20339;49.754;20.158;2023-02-19T13:20:43;96284.13;;;3.57;100.00
34065;BME280;20339;49.754;20.158;2023-02-19T13:23:21;96282.29;;;3.50;100.00
34065;BME280;20339;49.754;20.158;2023-02-19T13:26:25;96284.81;;;3.51;100.00
34065;BME280;20339;49.754;20.158;2023-02-19T13:29:15;96289.81;;;3.49;100.00
34065;BME280;20339;49.754;20.158;2023-02-19T13:32:03;96296.55;;;3.43;100.00
34065;BME280;20339;49.754;20.158;2023-02-19T13:34:53;96302.97;;;3.37;100.00
34065;BME280;20339;49.754;20.158;2023-02-19T13:37:28;96315.39;;;3.26;100.00
34065;BME280;20339;49.754;20.158;2023-02-19T13:40:16;96315.40;;;3.27;100.00
34065;BME280;20339;49.754;20.158;2023-02-19T13:42:55;96326.96;;;3.23;100.00
34065;BME280;20339;49.754;20.158;2023-02-19T13:45:33;96324.34;;;3.16;100.00
34065;BME280;20339;49.754;20.158;2023-02-19T13:48:14;96326.41;;;3.11;100.00
34065;BME280;20339;49.754;20.158;2023-02-19T13:50:46;96328.80;;;3.10;100.00
34065;BME280;20339;49.754;20.158;2023-02-19T13:53:57;96341.52;;;3.07;100.00